Cleveland, Ohio
Current Conditions -  °F | °C
As of 1:53 PM on Friday 24 Oct 2014 (Local Time) from KBKL Reporting Station
Clear Clear  
Wind Chill: 57°   Ceiling: Unl
Heat Index: 57°   Visibility: 10mi
Dew Point: 43°   Wind: 9mph
Humidity: 59%   Direction: 290°WNW
Pressure: 30.05"   Gusts: NA
Location:  41.5°N, 81.69°W
Report Text: KBKL 241753Z 29008KT 10SM CLR 14/06 A3005 RMK AO2 SLP176 T01390061 10139 20067 58015
Loading
Personal Weather Stations






























Interactive Weather Map
Tropical Storm Tracking
New forecast layout! Learn more

10-Day Weather Forecast

Advertisements
Track Severe Weather on mobile